sensor_id;sensor_type;location;lat;lon;timestamp;P1;durP1;ratioP1;P2;durP2;ratioP2
19149;SDS011;9707;49.158;8.632;2023-06-04T00:01:47;3.42;;;1.85;;
19149;SDS011;9707;49.158;8.632;2023-06-04T00:04:12;2.83;;;1.45;;
19149;SDS011;9707;49.158;8.632;2023-06-04T00:06:38;3.88;;;1.50;;
19149;SDS011;9707;49.158;8.632;2023-06-04T00:09:03;2.88;;;1.52;;
19149;SDS011;9707;49.158;8.632;2023-06-04T00:11:28;1.92;;;1.42;;
19149;SDS011;9707;49.158;8.632;2023-06-04T00:13:54;2.97;;;1.60;;
19149;SDS011;9707;49.158;8.632;2023-06-04T00:16:19;3.92;;;1.88;;
19149;SDS011;9707;49.158;8.632;2023-06-04T00:18:44;2.17;;;1.45;;
19149;SDS011;9707;49.158;8.632;2023-06-04T00:21:09;3.70;;;1.38;;
19149;SDS011;9707;49.158;8.632;2023-06-04T00:23:35;2.15;;;1.60;;
19149;SDS011;9707;49.158;8.632;2023-06-04T00:26:00;1.95;;;1.20;;
19149;SDS011;9707;49.158;8.632;2023-06-04T00:28:25;2.47;;;1.52;;
19149;SDS011;9707;49.158;8.632;2023-06-04T00:30:51;2.15;;;1.33;;
19149;SDS011;9707;49.158;8.632;2023-06-04T00:33:16;2.60;;;1.35;;
19149;SDS011;9707;49.158;8.632;2023-06-04T00:35:41;1.65;;;1.38;;
19149;SDS011;9707;49.158;8.632;2023-06-04T00:38:06;1.77;;;1.30;;
19149;SDS011;9707;49.158;8.632;2023-06-04T00:40:32;2.80;;;1.40;;
19149;SDS011;9707;49.158;8.632;2023-06-04T00:42:57;2.25;;;1.15;;
19149;SDS011;9707;49.158;8.632;2023-06-04T00:45:22;3.28;;;1.15;;
19149;SDS011;9707;49.158;8.632;2023-06-04T00:47:51;2.08;;;1.40;;
19149;SDS011;9707;49.158;8.632;2023-06-04T00:50:16;3.47;;;1.30;;
19149;SDS011;9707;49.158;8.632;2023-06-04T00:52:41;2.00;;;1.17;;
19149;SDS011;9707;49.158;8.632;2023-06-04T00:55:07;3.20;;;1.13;;
19149;SDS011;9707;49.158;8.632;2023-06-04T00:57:32;2.60;;;1.10;;
19149;SDS011;9707;49.158;8.632;2023-06-04T00:59:58;2.35;;;1.05;;
19149;SDS011;9707;49.158;8.632;2023-06-04T01:02:23;3.13;;;1.20;;
19149;SDS011;9707;49.158;8.632;2023-06-04T01:05:07;1.75;;;1.15;;
19149;SDS011;9707;49.158;8.632;2023-06-04T01:07:39;2.10;;;1.30;;
19149;SDS011;9707;49.158;8.632;2023-06-04T01:10:10;1.30;;;0.90;;
19149;SDS011;9707;49.158;8.632;2023-06-04T01:12:38;5.75;;;1.20;;
19149;SDS011;9707;49.158;8.632;2023-06-04T01:15:05;4.10;;;1.10;;
19149;SDS011;9707;49.158;8.632;2023-06-04T01:17:36;2.75;;;1.30;;
19149;SDS011;9707;49.158;8.632;2023-06-04T01:25:12;3.17;;;1.25;;
19149;SDS011;9707;49.158;8.632;2023-06-04T01:27:44;2.28;;;1.08;;
19149;SDS011;9707;49.158;8.632;2023-06-04T01:30:11;3.13;;;1.00;;
19149;SDS011;9707;49.158;8.632;2023-06-04T01:32:37;4.38;;;1.15;;
19149;SDS011;9707;49.158;8.632;2023-06-04T01:35:06;2.83;;;1.02;;
19149;SDS011;9707;49.158;8.632;2023-06-04T01:37:33;1.90;;;1.15;;
19149;SDS011;9707;49.158;8.632;2023-06-04T01:39:58;1.30;;;1.00;;
19149;SDS011;9707;49.158;8.632;2023-06-04T01:42:23;3.17;;;0.90;;
19149;SDS011;9707;49.158;8.632;2023-06-04T01:44:49;3.78;;;1.10;;
19149;SDS011;9707;49.158;8.632;2023-06-04T01:47:17;3.92;;;1.10;;
19149;SDS011;9707;49.158;8.632;2023-06-04T01:49:42;2.03;;;0.98;;
19149;SDS011;9707;49.158;8.632;2023-06-04T01:52:08;2.40;;;1.60;;
19149;SDS011;9707;49.158;8.632;2023-06-04T01:54:33;1.90;;;1.17;;
19149;SDS011;9707;49.158;8.632;2023-06-04T01:56:59;4.45;;;1.02;;
19149;SDS011;9707;49.158;8.632;2023-06-04T01:59:24;1.65;;;1.08;;
19149;SDS011;9707;49.158;8.632;2023-06-04T02:01:50;2.35;;;0.85;;
19149;SDS011;9707;49.158;8.632;2023-06-04T02:04:15;1.35;;;0.90;;
19149;SDS011;9707;49.158;8.632;2023-06-04T02:06:40;7.10;;;2.30;;
19149;SDS011;9707;49.158;8.632;2023-06-04T02:09:06;1.83;;;1.13;;
19149;SDS011;9707;49.158;8.632;2023-06-04T02:11:31;1.05;;;0.93;;
19149;SDS011;9707;49.158;8.632;2023-06-04T02:13:56;1.65;;;0.90;;
19149;SDS011;9707;49.158;8.632;2023-06-04T02:16:21;5.22;;;1.10;;
19149;SDS011;9707;49.158;8.632;2023-06-04T02:18:47;1.85;;;1.00;;
19149;SDS011;9707;49.158;8.632;2023-06-04T02:21:12;1.38;;;1.00;;
19149;SDS011;9707;49.158;8.632;2023-06-04T02:23:37;3.78;;;1.10;;
19149;SDS011;9707;49.158;8.632;2023-06-04T02:26:02;2.35;;;0.95;;
19149;SDS011;9707;49.158;8.632;2023-06-04T02:28:28;1.73;;;0.82;;
19149;SDS011;9707;49.158;8.632;2023-06-04T02:30:53;2.25;;;0.88;;
19149;SDS011;9707;49.158;8.632;2023-06-04T02:33:18;1.50;;;1.00;;
19149;SDS011;9707;49.158;8.632;2023-06-04T02:35:44;1.55;;;0.88;;
19149;SDS011;9707;49.158;8.632;2023-06-04T02:38:09;2.15;;;0.90;;
19149;SDS011;9707;49.158;8.632;2023-06-04T02:40:35;1.67;;;0.80;;
19149;SDS011;9707;49.158;8.632;2023-06-04T02:43:00;4.35;;;1.20;;
19149;SDS011;9707;49.158;8.632;2023-06-04T02:45:26;1.38;;;0.90;;
19149;SDS011;9707;49.158;8.632;2023-06-04T02:47:51;1.70;;;0.82;;
19149;SDS011;9707;49.158;8.632;2023-06-04T02:50:16;1.38;;;0.90;;
19149;SDS011;9707;49.158;8.632;2023-06-04T02:52:42;1.58;;;1.17;;
19149;SDS011;9707;49.158;8.632;2023-06-04T02:55:07;2.08;;;0.90;;
19149;SDS011;9707;49.158;8.632;2023-06-04T02:57:33;1.55;;;0.90;;
19149;SDS011;9707;49.158;8.632;2023-06-04T02:59:59;3.00;;;1.08;;
19149;SDS011;9707;49.158;8.632;2023-06-04T03:02:25;1.55;;;1.10;;
19149;SDS011;9707;49.158;8.632;2023-06-04T03:04:50;4.10;;;1.10;;
19149;SDS011;9707;49.158;8.632;2023-06-04T03:07:17;5.05;;;1.10;;
19149;SDS011;9707;49.158;8.632;2023-06-04T03:09:46;2.83;;;1.50;;
19149;SDS011;9707;49.158;8.632;2023-06-04T03:12:12;1.52;;;0.82;;
19149;SDS011;9707;49.158;8.632;2023-06-04T03:14:37;1.17;;;0.80;;
19149;SDS011;9707;49.158;8.632;2023-06-04T03:17:02;1.98;;;0.98;;
19149;SDS011;9707;49.158;8.632;2023-06-04T03:19:35;2.83;;;1.05;;
19149;SDS011;9707;49.158;8.632;2023-06-04T03:22:01;2.13;;;0.70;;
19149;SDS011;9707;49.158;8.632;2023-06-04T03:24:31;4.35;;;1.00;;
19149;SDS011;9707;49.158;8.632;2023-06-04T03:27:02;1.55;;;0.82;;
19149;SDS011;9707;49.158;8.632;2023-06-04T03:29:31;1.77;;;1.00;;
19149;SDS011;9707;49.158;8.632;2023-06-04T03:31:57;1.15;;;0.90;;
19149;SDS011;9707;49.158;8.632;2023-06-04T03:34:22;3.95;;;1.27;;
19149;SDS011;9707;49.158;8.632;2023-06-04T03:36:54;2.70;;;0.85;;
19149;SDS011;9707;49.158;8.632;2023-06-04T03:39:20;2.88;;;0.85;;
19149;SDS011;9707;49.158;8.632;2023-06-04T03:41:46;0.93;;;0.70;;
19149;SDS011;9707;49.158;8.632;2023-06-04T03:44:15;1.35;;;0.90;;
19149;SDS011;9707;49.158;8.632;2023-06-04T03:46:41;2.42;;;0.88;;
19149;SDS011;9707;49.158;8.632;2023-06-04T03:49:08;1.80;;;1.00;;
19149;SDS011;9707;49.158;8.632;2023-06-04T03:51:35;2.38;;;0.95;;
19149;SDS011;9707;49.158;8.632;2023-06-04T03:54:01;1.48;;;0.80;;
19149;SDS011;9707;49.158;8.632;2023-06-04T03:56:27;2.15;;;1.10;;
19149;SDS011;9707;49.158;8.632;2023-06-04T03:58:53;1.77;;;0.88;;
19149;SDS011;9707;49.158;8.632;2023-06-04T04:01:18;1.38;;;0.80;;
19149;SDS011;9707;49.158;8.632;2023-06-04T04:03:43;2.15;;;1.00;;
19149;SDS011;9707;49.158;8.632;2023-06-04T04:06:13;1.77;;;0.95;;
19149;SDS011;9707;49.158;8.632;2023-06-04T04:08:39;2.30;;;1.13;;
19149;SDS011;9707;49.158;8.632;2023-06-04T04:11:07;2.70;;;0.90;;
19149;SDS011;9707;49.158;8.632;2023-06-04T04:13:33;3.35;;;1.00;;
19149;SDS011;9707;49.158;8.632;2023-06-04T04:15:58;2.47;;;1.00;;
19149;SDS011;9707;49.158;8.632;2023-06-04T04:18:23;3.28;;;1.00;;
19149;SDS011;9707;49.158;8.632;2023-06-04T04:20:49;2.55;;;0.90;;
19149;SDS011;9707;49.158;8.632;2023-06-04T04:23:14;2.70;;;1.30;;
19149;SDS011;9707;49.158;8.632;2023-06-04T04:25:39;1.52;;;0.70;;
19149;SDS011;9707;49.158;8.632;2023-06-04T04:28:06;1.98;;;0.88;;
19149;SDS011;9707;49.158;8.632;2023-06-04T04:30:35;2.40;;;0.70;;
19149;SDS011;9707;49.158;8.632;2023-06-04T04:33:01;2.90;;;0.90;;
19149;SDS011;9707;49.158;8.632;2023-06-04T04:35:26;2.65;;;0.90;;
19149;SDS011;9707;49.158;8.632;2023-06-04T04:37:52;2.15;;;1.02;;
19149;SDS011;9707;49.158;8.632;2023-06-04T04:40:17;3.67;;;1.30;;
19149;SDS011;9707;49.158;8.632;2023-06-04T04:42:42;3.40;;;1.08;;
19149;SDS011;9707;49.158;8.632;2023-06-04T04:45:08;1.20;;;0.90;;
19149;SDS011;9707;49.158;8.632;2023-06-04T04:47:34;2.42;;;0.98;;
19149;SDS011;9707;49.158;8.632;2023-06-04T04:49:59;1.38;;;0.80;;
19149;SDS011;9707;49.158;8.632;2023-06-04T04:52:24;2.15;;;0.80;;
19149;SDS011;9707;49.158;8.632;2023-06-04T04:54:50;2.22;;;0.90;;
19149;SDS011;9707;49.158;8.632;2023-06-04T04:57:15;2.45;;;0.90;;
19149;SDS011;9707;49.158;8.632;2023-06-04T04:59:40;1.88;;;0.98;;
19149;SDS011;9707;49.158;8.632;2023-06-04T05:02:06;3.10;;;0.88;;
19149;SDS011;9707;49.158;8.632;2023-06-04T05:04:31;2.65;;;0.80;;
19149;SDS011;9707;49.158;8.632;2023-06-04T05:06:56;1.73;;;1.00;;
19149;SDS011;9707;49.158;8.632;2023-06-04T05:09:22;2.15;;;0.88;;
19149;SDS011;9707;49.158;8.632;2023-06-04T05:11:47;2.17;;;1.00;;
19149;SDS011;9707;49.158;8.632;2023-06-04T05:14:12;3.08;;;0.90;;
19149;SDS011;9707;49.158;8.632;2023-06-04T05:16:38;1.65;;;0.88;;
19149;SDS011;9707;49.158;8.632;2023-06-04T05:19:05;0.82;;;0.55;;
19149;SDS011;9707;49.158;8.632;2023-06-04T05:21:31;1.52;;;0.90;;
19149;SDS011;9707;49.158;8.632;2023-06-04T05:23:56;3.35;;;1.30;;
19149;SDS011;9707;49.158;8.632;2023-06-04T05:26:21;1.85;;;0.90;;
19149;SDS011;9707;49.158;8.632;2023-06-04T05:28:50;1.58;;;1.00;;
19149;SDS011;9707;49.158;8.632;2023-06-04T05:31:15;1.85;;;0.82;;
19149;SDS011;9707;49.158;8.632;2023-06-04T05:33:43;1.65;;;0.93;;
19149;SDS011;9707;49.158;8.632;2023-06-04T05:36:08;1.80;;;0.80;;
19149;SDS011;9707;49.158;8.632;2023-06-04T05:38:34;1.52;;;0.82;;
19149;SDS011;9707;49.158;8.632;2023-06-04T05:41:00;1.65;;;0.88;;
19149;SDS011;9707;49.158;8.632;2023-06-04T05:43:29;4.15;;;0.70;;
19149;SDS011;9707;49.158;8.632;2023-06-04T05:45:54;1.50;;;0.85;;
19149;SDS011;9707;49.158;8.632;2023-06-04T05:48:19;2.28;;;0.80;;
19149;SDS011;9707;49.158;8.632;2023-06-04T05:50:45;1.85;;;1.02;;
19149;SDS011;9707;49.158;8.632;2023-06-04T05:53:12;2.80;;;0.88;;
19149;SDS011;9707;49.158;8.632;2023-06-04T05:55:37;2.85;;;0.90;;
19149;SDS011;9707;49.158;8.632;2023-06-04T05:58:02;2.78;;;1.00;;
19149;SDS011;9707;49.158;8.632;2023-06-04T06:00:28;1.48;;;1.00;;
19149;SDS011;9707;49.158;8.632;2023-06-04T06:02:53;3.35;;;1.00;;
19149;SDS011;9707;49.158;8.632;2023-06-04T06:05:20;3.00;;;1.13;;
19149;SDS011;9707;49.158;8.632;2023-06-04T06:07:45;2.83;;;1.10;;
19149;SDS011;9707;49.158;8.632;2023-06-04T06:10:11;3.20;;;1.00;;
19149;SDS011;9707;49.158;8.632;2023-06-04T06:12:36;2.67;;;0.90;;
19149;SDS011;9707;49.158;8.632;2023-06-04T06:15:02;1.30;;;0.60;;
19149;SDS011;9707;49.158;8.632;2023-06-04T06:17:27;2.90;;;0.80;;
19149;SDS011;9707;49.158;8.632;2023-06-04T06:19:53;3.00;;;1.08;;
19149;SDS011;9707;49.158;8.632;2023-06-04T06:22:19;1.58;;;0.90;;
19149;SDS011;9707;49.158;8.632;2023-06-04T06:24:44;1.23;;;0.70;;
19149;SDS011;9707;49.158;8.632;2023-06-04T06:27:10;2.63;;;1.02;;
19149;SDS011;9707;49.158;8.632;2023-06-04T06:29:35;2.15;;;1.17;;
19149;SDS011;9707;49.158;8.632;2023-06-04T06:32:01;2.30;;;0.73;;
19149;SDS011;9707;49.158;8.632;2023-06-04T06:34:27;2.80;;;0.98;;
19149;SDS011;9707;49.158;8.632;2023-06-04T06:36:52;2.17;;;1.05;;
19149;SDS011;9707;49.158;8.632;2023-06-04T06:39:17;1.13;;;0.90;;
19149;SDS011;9707;49.158;8.632;2023-06-04T06:41:43;1.38;;;0.73;;
19149;SDS011;9707;49.158;8.632;2023-06-04T06:44:10;1.98;;;0.90;;
19149;SDS011;9707;49.158;8.632;2023-06-04T06:46:38;3.17;;;0.95;;
19149;SDS011;9707;49.158;8.632;2023-06-04T06:49:03;1.67;;;0.75;;
19149;SDS011;9707;49.158;8.632;2023-06-04T06:51:29;4.00;;;1.15;;
19149;SDS011;9707;49.158;8.632;2023-06-04T06:53:55;2.17;;;1.00;;
19149;SDS011;9707;49.158;8.632;2023-06-04T06:56:20;3.05;;;1.02;;
19149;SDS011;9707;49.158;8.632;2023-06-04T06:58:45;1.45;;;1.08;;
19149;SDS011;9707;49.158;8.632;2023-06-04T07:01:11;0.73;;;0.60;;
19149;SDS011;9707;49.158;8.632;2023-06-04T07:03:37;3.75;;;1.00;;
19149;SDS011;9707;49.158;8.632;2023-06-04T07:06:03;2.20;;;0.98;;
19149;SDS011;9707;49.158;8.632;2023-06-04T07:08:28;4.45;;;1.40;;
19149;SDS011;9707;49.158;8.632;2023-06-04T07:10:54;2.30;;;0.95;;
19149;SDS011;9707;49.158;8.632;2023-06-04T07:13:19;2.78;;;0.90;;
19149;SDS011;9707;49.158;8.632;2023-06-04T07:15:45;1.13;;;1.00;;
19149;SDS011;9707;49.158;8.632;2023-06-04T07:18:10;1.45;;;1.00;;
19149;SDS011;9707;49.158;8.632;2023-06-04T07:20:35;1.08;;;0.80;;
19149;SDS011;9707;49.158;8.632;2023-06-04T07:23:00;4.53;;;1.17;;
19149;SDS011;9707;49.158;8.632;2023-06-04T07:25:26;2.95;;;1.00;;
19149;SDS011;9707;49.158;8.632;2023-06-04T07:27:51;1.10;;;0.80;;
19149;SDS011;9707;49.158;8.632;2023-06-04T07:30:16;1.63;;;1.08;;
19149;SDS011;9707;49.158;8.632;2023-06-04T07:32:45;2.28;;;1.13;;
19149;SDS011;9707;49.158;8.632;2023-06-04T07:35:11;4.88;;;1.20;;
19149;SDS011;9707;49.158;8.632;2023-06-04T07:37:37;3.35;;;1.30;;
19149;SDS011;9707;49.158;8.632;2023-06-04T07:40:02;3.65;;;1.00;;
19149;SDS011;9707;49.158;8.632;2023-06-04T07:42:28;3.28;;;1.13;;
19149;SDS011;9707;49.158;8.632;2023-06-04T07:44:53;2.15;;;1.17;;
19149;SDS011;9707;49.158;8.632;2023-06-04T07:47:19;1.42;;;0.82;;
19149;SDS011;9707;49.158;8.632;2023-06-04T07:49:44;2.33;;;1.20;;
19149;SDS011;9707;49.158;8.632;2023-06-04T07:52:09;2.70;;;1.15;;
19149;SDS011;9707;49.158;8.632;2023-06-04T07:54:34;1.88;;;0.90;;
19149;SDS011;9707;49.158;8.632;2023-06-04T07:57:00;1.75;;;1.00;;
19149;SDS011;9707;49.158;8.632;2023-06-04T07:59:25;1.27;;;0.80;;
19149;SDS011;9707;49.158;8.632;2023-06-04T08:01:50;2.00;;;0.82;;
19149;SDS011;9707;49.158;8.632;2023-06-04T08:04:18;2.72;;;1.40;;
19149;SDS011;9707;49.158;8.632;2023-06-04T08:06:44;2.10;;;1.20;;
19149;SDS011;9707;49.158;8.632;2023-06-04T08:09:09;2.90;;;1.15;;
19149;SDS011;9707;49.158;8.632;2023-06-04T08:11:35;2.53;;;1.08;;
19149;SDS011;9707;49.158;8.632;2023-06-04T08:14:00;1.95;;;1.20;;
19149;SDS011;9707;49.158;8.632;2023-06-04T08:16:26;2.03;;;1.15;;
19149;SDS011;9707;49.158;8.632;2023-06-04T08:18:51;3.20;;;1.50;;
19149;SDS011;9707;49.158;8.632;2023-06-04T08:21:24;1.38;;;0.95;;
19149;SDS011;9707;49.158;8.632;2023-06-04T08:23:50;3.38;;;1.15;;
19149;SDS011;9707;49.158;8.632;2023-06-04T08:26:15;2.08;;;1.50;;
19149;SDS011;9707;49.158;8.632;2023-06-04T08:28:41;2.25;;;0.80;;
19149;SDS011;9707;49.158;8.632;2023-06-04T08:31:06;3.58;;;1.30;;
19149;SDS011;9707;49.158;8.632;2023-06-04T08:33:34;4.63;;;1.40;;
19149;SDS011;9707;49.158;8.632;2023-06-04T08:35:59;2.17;;;1.25;;
19149;SDS011;9707;49.158;8.632;2023-06-04T08:38:25;4.07;;;1.63;;
19149;SDS011;9707;49.158;8.632;2023-06-04T08:40:51;3.50;;;1.60;;
19149;SDS011;9707;49.158;8.632;2023-06-04T08:43:18;1.65;;;1.30;;
19149;SDS011;9707;49.158;8.632;2023-06-04T08:45:44;2.10;;;1.48;;
19149;SDS011;9707;49.158;8.632;2023-06-04T08:48:14;1.65;;;0.90;;
19149;SDS011;9707;49.158;8.632;2023-06-04T08:50:40;3.90;;;1.35;;
19149;SDS011;9707;49.158;8.632;2023-06-04T08:53:10;2.40;;;1.30;;
19149;SDS011;9707;49.158;8.632;2023-06-04T08:55:38;2.80;;;1.23;;
19149;SDS011;9707;49.158;8.632;2023-06-04T08:58:05;3.80;;;1.85;;
19149;SDS011;9707;49.158;8.632;2023-06-04T09:00:33;2.13;;;1.50;;
19149;SDS011;9707;49.158;8.632;2023-06-04T09:02:58;4.55;;;1.63;;
19149;SDS011;9707;49.158;8.632;2023-06-04T09:05:26;1.80;;;1.10;;
19149;SDS011;9707;49.158;8.632;2023-06-04T09:07:52;2.30;;;1.48;;
19149;SDS011;9707;49.158;8.632;2023-06-04T09:10:20;4.07;;;1.90;;
19149;SDS011;9707;49.158;8.632;2023-06-04T09:12:47;3.05;;;1.85;;
19149;SDS011;9707;49.158;8.632;2023-06-04T09:15:18;1.55;;;1.20;;
19149;SDS011;9707;49.158;8.632;2023-06-04T09:17:44;3.60;;;1.70;;
19149;SDS011;9707;49.158;8.632;2023-06-04T09:20:18;2.67;;;1.75;;
19149;SDS011;9707;49.158;8.632;2023-06-04T09:22:44;4.15;;;1.95;;
19149;SDS011;9707;49.158;8.632;2023-06-04T09:25:18;2.45;;;1.52;;
19149;SDS011;9707;49.158;8.632;2023-06-04T09:27:47;2.45;;;1.42;;
19149;SDS011;9707;49.158;8.632;2023-06-04T09:30:13;3.58;;;1.50;;
19149;SDS011;9707;49.158;8.632;2023-06-04T09:32:39;2.10;;;1.25;;
19149;SDS011;9707;49.158;8.632;2023-06-04T09:35:12;2.45;;;1.25;;
19149;SDS011;9707;49.158;8.632;2023-06-04T09:37:53;3.47;;;2.30;;
19149;SDS011;9707;49.158;8.632;2023-06-04T09:40:20;6.25;;;1.80;;
19149;SDS011;9707;49.158;8.632;2023-06-04T09:42:47;2.63;;;1.60;;
19149;SDS011;9707;49.158;8.632;2023-06-04T09:45:26;4.07;;;1.50;;
19149;SDS011;9707;49.158;8.632;2023-06-04T09:47:57;3.85;;;1.80;;
19149;SDS011;9707;49.158;8.632;2023-06-04T09:50:26;1.60;;;1.20;;
19149;SDS011;9707;49.158;8.632;2023-06-04T09:52:53;5.05;;;1.50;;
19149;SDS011;9707;49.158;8.632;2023-06-04T09:55:19;4.22;;;1.55;;
19149;SDS011;9707;49.158;8.632;2023-06-04T09:57:48;4.75;;;1.45;;
19149;SDS011;9707;49.158;8.632;2023-06-04T10:00:18;2.72;;;1.40;;
19149;SDS011;9707;49.158;8.632;2023-06-04T10:02:45;3.88;;;1.40;;
19149;SDS011;9707;49.158;8.632;2023-06-04T10:05:11;1.58;;;1.02;;
19149;SDS011;9707;49.158;8.632;2023-06-04T10:07:39;3.10;;;1.33;;
19149;SDS011;9707;49.158;8.632;2023-06-04T10:10:08;2.78;;;1.60;;
19149;SDS011;9707;49.158;8.632;2023-06-04T10:12:38;3.20;;;1.42;;
19149;SDS011;9707;49.158;8.632;2023-06-04T10:15:07;3.17;;;1.17;;
19149;SDS011;9707;49.158;8.632;2023-06-04T10:17:36;3.83;;;1.42;;
19149;SDS011;9707;49.158;8.632;2023-06-04T10:20:02;3.58;;;1.38;;
19149;SDS011;9707;49.158;8.632;2023-06-04T10:22:31;2.83;;;1.02;;
19149;SDS011;9707;49.158;8.632;2023-06-04T10:24:58;1.83;;;1.40;;
19149;SDS011;9707;49.158;8.632;2023-06-04T10:27:23;2.10;;;1.60;;
19149;SDS011;9707;49.158;8.632;2023-06-04T10:29:50;2.22;;;1.30;;
19149;SDS011;9707;49.158;8.632;2023-06-04T10:32:15;2.00;;;1.50;;
19149;SDS011;9707;49.158;8.632;2023-06-04T10:34:41;3.53;;;1.88;;
19149;SDS011;9707;49.158;8.632;2023-06-04T10:37:08;3.75;;;1.60;;
19149;SDS011;9707;49.158;8.632;2023-06-04T10:39:55;2.63;;;1.33;;
19149;SDS011;9707;49.158;8.632;2023-06-04T10:42:21;2.63;;;1.40;;
19149;SDS011;9707;49.158;8.632;2023-06-04T10:44:48;2.00;;;1.23;;
19149;SDS011;9707;49.158;8.632;2023-06-04T10:47:25;3.47;;;1.38;;
19149;SDS011;9707;49.158;8.632;2023-06-04T10:49:52;2.47;;;1.52;;
19149;SDS011;9707;49.158;8.632;2023-06-04T10:52:18;1.13;;;0.90;;
19149;SDS011;9707;49.158;8.632;2023-06-04T10:54:45;2.53;;;1.20;;
19149;SDS011;9707;49.158;8.632;2023-06-04T10:57:12;1.45;;;1.10;;
19149;SDS011;9707;49.158;8.632;2023-06-04T10:59:38;2.05;;;1.50;;
19149;SDS011;9707;49.158;8.632;2023-06-04T11:02:04;2.22;;;1.40;;
19149;SDS011;9707;49.158;8.632;2023-06-04T11:04:31;2.05;;;1.40;;
19149;SDS011;9707;49.158;8.632;2023-06-04T11:06:59;1.58;;;1.23;;
19149;SDS011;9707;49.158;8.632;2023-06-04T11:09:33;2.10;;;1.50;;
19149;SDS011;9707;49.158;8.632;2023-06-04T11:12:00;1.98;;;1.42;;
19149;SDS011;9707;49.158;8.632;2023-06-04T11:14:26;1.90;;;1.35;;
19149;SDS011;9707;49.158;8.632;2023-06-04T11:16:51;1.90;;;1.20;;
19149;SDS011;9707;49.158;8.632;2023-06-04T11:19:16;2.15;;;1.50;;
19149;SDS011;9707;49.158;8.632;2023-06-04T11:21:42;3.47;;;1.52;;
19149;SDS011;9707;49.158;8.632;2023-06-04T11:24:08;2.88;;;1.30;;
19149;SDS011;9707;49.158;8.632;2023-06-04T11:26:35;2.85;;;1.23;;
19149;SDS011;9707;49.158;8.632;2023-06-04T11:29:02;3.28;;;1.33;;
19149;SDS011;9707;49.158;8.632;2023-06-04T11:31:41;3.25;;;1.42;;
19149;SDS011;9707;49.158;8.632;2023-06-04T11:34:10;3.42;;;1.73;;
19149;SDS011;9707;49.158;8.632;2023-06-04T11:36:46;2.72;;;1.45;;
19149;SDS011;9707;49.158;8.632;2023-06-04T11:39:14;2.95;;;1.50;;
19149;SDS011;9707;49.158;8.632;2023-06-04T11:41:40;2.28;;;1.40;;
19149;SDS011;9707;49.158;8.632;2023-06-04T11:44:06;1.70;;;1.15;;
19149;SDS011;9707;49.158;8.632;2023-06-04T11:46:32;3.05;;;1.52;;
19149;SDS011;9707;49.158;8.632;2023-06-04T11:48:58;3.03;;;1.45;;
19149;SDS011;9707;49.158;8.632;2023-06-04T11:51:24;2.25;;;1.58;;
19149;SDS011;9707;49.158;8.632;2023-06-04T11:53:49;5.18;;;1.77;;
19149;SDS011;9707;49.158;8.632;2023-06-04T11:56:15;4.05;;;1.63;;
19149;SDS011;9707;49.158;8.632;2023-06-04T11:58:41;1.98;;;1.30;;
19149;SDS011;9707;49.158;8.632;2023-06-04T12:01:07;3.75;;;1.80;;
19149;SDS011;9707;49.158;8.632;2023-06-04T12:03:34;5.38;;;1.90;;
19149;SDS011;9707;49.158;8.632;2023-06-04T12:06:09;3.15;;;1.40;;
19149;SDS011;9707;49.158;8.632;2023-06-04T12:11:24;5.15;;;1.60;;
19149;SDS011;9707;49.158;8.632;2023-06-04T12:14:00;2.40;;;1.67;;
19149;SDS011;9707;49.158;8.632;2023-06-04T12:16:32;3.53;;;1.80;;
19149;SDS011;9707;49.158;8.632;2023-06-04T12:19:11;1.98;;;1.52;;
19149;SDS011;9707;49.158;8.632;2023-06-04T12:21:37;2.97;;;1.42;;
19149;SDS011;9707;49.158;8.632;2023-06-04T12:24:09;6.00;;;2.05;;
19149;SDS011;9707;49.158;8.632;2023-06-04T12:26:36;3.15;;;1.92;;
19149;SDS011;9707;49.158;8.632;2023-06-04T12:29:09;3.28;;;2.08;;
19149;SDS011;9707;49.158;8.632;2023-06-04T12:31:37;2.83;;;1.83;;
19149;SDS011;9707;49.158;8.632;2023-06-04T12:34:03;3.10;;;1.48;;
19149;SDS011;9707;49.158;8.632;2023-06-04T12:36:28;6.53;;;2.00;;
19149;SDS011;9707;49.158;8.632;2023-06-04T12:38:58;3.13;;;1.67;;
19149;SDS011;9707;49.158;8.632;2023-06-04T12:41:25;3.13;;;1.80;;
19149;SDS011;9707;49.158;8.632;2023-06-04T12:43:51;5.05;;;1.95;;
19149;SDS011;9707;49.158;8.632;2023-06-04T12:46:16;3.90;;;2.10;;
19149;SDS011;9707;49.158;8.632;2023-06-04T12:48:42;2.83;;;1.80;;
19149;SDS011;9707;49.158;8.632;2023-06-04T12:51:08;2.80;;;1.83;;
19149;SDS011;9707;49.158;8.632;2023-06-04T12:53:35;3.63;;;1.80;;
19149;SDS011;9707;49.158;8.632;2023-06-04T12:56:03;2.20;;;1.70;;
19149;SDS011;9707;49.158;8.632;2023-06-04T12:58:29;2.88;;;1.67;;
19149;SDS011;9707;49.158;8.632;2023-06-04T13:00:55;3.28;;;1.75;;
19149;SDS011;9707;49.158;8.632;2023-06-04T13:03:20;2.15;;;1.70;;
19149;SDS011;9707;49.158;8.632;2023-06-04T13:05:45;2.13;;;1.48;;
19149;SDS011;9707;49.158;8.632;2023-06-04T13:08:10;3.42;;;1.77;;
19149;SDS011;9707;49.158;8.632;2023-06-04T13:10:36;2.55;;;1.60;;
19149;SDS011;9707;49.158;8.632;2023-06-04T13:13:01;2.45;;;1.40;;
19149;SDS011;9707;49.158;8.632;2023-06-04T13:15:26;4.00;;;1.70;;
19149;SDS011;9707;49.158;8.632;2023-06-04T13:17:52;3.38;;;1.92;;
19149;SDS011;9707;49.158;8.632;2023-06-04T13:20:17;2.13;;;1.60;;
19149;SDS011;9707;49.158;8.632;2023-06-04T13:22:43;2.65;;;1.80;;
19149;SDS011;9707;49.158;8.632;2023-06-04T13:25:08;3.95;;;1.67;;
19149;SDS011;9707;49.158;8.632;2023-06-04T13:27:34;3.00;;;1.50;;
19149;SDS011;9707;49.158;8.632;2023-06-04T13:29:59;3.13;;;1.60;;
19149;SDS011;9707;49.158;8.632;2023-06-04T13:32:25;2.83;;;1.45;;
19149;SDS011;9707;49.158;8.632;2023-06-04T13:34:51;2.35;;;1.27;;
19149;SDS011;9707;49.158;8.632;2023-06-04T13:37:16;3.80;;;1.50;;
19149;SDS011;9707;49.158;8.632;2023-06-04T13:39:41;3.20;;;1.55;;
19149;SDS011;9707;49.158;8.632;2023-06-04T13:42:06;1.67;;;1.23;;
19149;SDS011;9707;49.158;8.632;2023-06-04T13:44:32;3.42;;;1.20;;
19149;SDS011;9707;49.158;8.632;2023-06-04T13:46:58;3.45;;;1.40;;
19149;SDS011;9707;49.158;8.632;2023-06-04T13:49:24;3.15;;;1.50;;
19149;SDS011;9707;49.158;8.632;2023-06-04T13:51:49;3.03;;;1.40;;
19149;SDS011;9707;49.158;8.632;2023-06-04T13:54:15;2.38;;;1.65;;
19149;SDS011;9707;49.158;8.632;2023-06-04T13:56:40;2.15;;;1.60;;
19149;SDS011;9707;49.158;8.632;2023-06-04T13:59:05;3.55;;;1.38;;
19149;SDS011;9707;49.158;8.632;2023-06-04T14:01:31;1.67;;;1.13;;
19149;SDS011;9707;49.158;8.632;2023-06-04T14:03:56;3.40;;;1.40;;
19149;SDS011;9707;49.158;8.632;2023-06-04T14:06:23;1.80;;;1.30;;
19149;SDS011;9707;49.158;8.632;2023-06-04T14:08:49;2.47;;;1.60;;
19149;SDS011;9707;49.158;8.632;2023-06-04T14:11:14;2.22;;;1.58;;
19149;SDS011;9707;49.158;8.632;2023-06-04T14:13:40;3.40;;;1.77;;
19149;SDS011;9707;49.158;8.632;2023-06-04T14:16:06;2.40;;;1.48;;
19149;SDS011;9707;49.158;8.632;2023-06-04T14:18:31;2.05;;;1.70;;
19149;SDS011;9707;49.158;8.632;2023-06-04T14:20:56;3.75;;;1.50;;
19149;SDS011;9707;49.158;8.632;2023-06-04T14:23:22;2.30;;;1.10;;
19149;SDS011;9707;49.158;8.632;2023-06-04T14:25:47;2.97;;;1.65;;
19149;SDS011;9707;49.158;8.632;2023-06-04T14:28:12;1.88;;;1.27;;
19149;SDS011;9707;49.158;8.632;2023-06-04T14:30:37;2.97;;;1.52;;
19149;SDS011;9707;49.158;8.632;2023-06-04T14:33:03;1.55;;;1.33;;
19149;SDS011;9707;49.158;8.632;2023-06-04T14:35:28;1.85;;;1.15;;
19149;SDS011;9707;49.158;8.632;2023-06-04T14:37:53;4.10;;;1.45;;
19149;SDS011;9707;49.158;8.632;2023-06-04T14:40:19;2.58;;;1.67;;
19149;SDS011;9707;49.158;8.632;2023-06-04T14:42:44;3.03;;;1.83;;
19149;SDS011;9707;49.158;8.632;2023-06-04T14:45:09;2.08;;;1.38;;
19149;SDS011;9707;49.158;8.632;2023-06-04T14:47:35;4.30;;;1.58;;
19149;SDS011;9707;49.158;8.632;2023-06-04T14:50:00;5.43;;;1.60;;
19149;SDS011;9707;49.158;8.632;2023-06-04T14:52:25;2.58;;;1.63;;
19149;SDS011;9707;49.158;8.632;2023-06-04T14:54:52;2.55;;;1.40;;
19149;SDS011;9707;49.158;8.632;2023-06-04T14:57:18;1.70;;;1.30;;
19149;SDS011;9707;49.158;8.632;2023-06-04T14:59:44;3.65;;;1.65;;
19149;SDS011;9707;49.158;8.632;2023-06-04T15:02:10;2.75;;;1.50;;
19149;SDS011;9707;49.158;8.632;2023-06-04T15:04:35;1.60;;;1.20;;